Time;durP1;ratioP1;P1;durP2;ratioP2;P2;SDS_P1;SDS_P2;PMS_P1;PMS_P2;Temp;Humidity;BMP_temperature;BMP_pressure;BME280_temperature;BME280_humidity;BME280_pressure;Samples;Min_cycle;Max_cycle;Signal;HPM_P1;HPM_P2
2022/02/24 00:00:51;;;;;;;10.40;6.28;;;;;;;5.70;75.31;101156.72;5040706;28;20037;-72
2022/02/24 00:03:17;;;;;;;9.80;6.78;;;;;;;5.39;77.06;101151.38;5033162;28;20053;-72
2022/02/24 00:05:44;;;;;;;9.38;5.82;;;;;;;5.34;76.38;101166.84;5031987;28;20038;-72
2022/02/24 00:08:09;;;;;;;9.27;6.80;;;;;;;5.24;76.52;101157.84;5030187;28;20197;-73
2022/02/24 00:10:35;;;;;;;9.90;6.32;;;;;;;5.16;77.14;101150.59;5029793;28;20456;-72
2022/02/24 00:13:00;;;;;;;12.75;7.93;;;;;;;5.20;77.28;101171.56;5033532;28;20064;-72
2022/02/24 00:15:26;;;;;;;12.85;7.53;;;;;;;5.22;77.24;101172.50;5029685;28;20045;-71
2022/02/24 00:17:52;;;;;;;13.50;9.35;;;;;;;5.28;77.65;101170.09;5042397;28;20032;-72
2022/02/24 00:20:18;;;;;;;15.07;10.30;;;;;;;5.44;77.60;101170.63;5012564;28;20477;-71
2022/02/24 00:22:44;;;;;;;15.88;10.18;;;;;;;5.45;78.76;101182.78;5027533;28;20037;-71
2022/02/24 00:25:10;;;;;;;16.90;11.00;;;;;;;5.66;79.76;101172.19;5028732;28;20049;-72
2022/02/24 00:27:36;;;;;;;16.25;12.07;;;;;;;5.66;79.80;101186.09;5030378;28;20086;-72
2022/02/24 00:30:05;;;;;;;16.77;12.45;;;;;;;5.76;79.56;101195.09;5032223;28;20056;-72
2022/02/24 00:32:31;;;;;;;18.73;11.27;;;;;;;5.74;80.10;101196.78;5013036;28;20025;-73
2022/02/24 00:34:57;;;;;;;17.17;12.77;;;;;;;5.93;79.64;101187.81;5018123;28;20048;-73
2022/02/24 00:37:23;;;;;;;22.38;12.20;;;;;;;5.93;79.67;101208.66;5033068;28;20438;-73
2022/02/24 00:40:24;;;;;;;17.13;12.07;;;;;;;6.20;79.10;101205.16;5027793;28;20389;-73
2022/02/24 00:46:11;;;;;;;16.38;11.48;;;;;;;6.01;78.77;101207.19;5025801;28;20087;-73
2022/02/24 00:49:20;;;;;;;15.05;11.15;;;;;;;6.21;78.20;101209.56;5036820;28;20038;-72
2022/02/24 00:51:46;;;;;;;19.38;11.68;;;;;;;6.04;77.81;101214.22;5029591;28;20408;-73
2022/02/24 00:54:13;;;;;;;12.75;10.30;;;;;;;5.93;77.05;101198.25;5026468;28;20029;-72
2022/02/24 00:56:39;;;;;;;13.07;9.52;;;;;;;6.05;77.73;101208.19;5032096;28;20072;-72
2022/02/24 00:59:05;;;;;;;14.68;9.80;;;;;;;6.17;76.63;101216.38;5010372;28;20389;-72
2022/02/24 01:01:30;;;;;;;12.63;8.70;;;;;;;6.16;77.16;101221.53;5039413;28;20076;-72
2022/02/24 01:03:56;;;;;;;18.35;9.18;;;;;;;6.15;76.19;101219.78;5029839;28;20041;-73
2022/02/24 01:06:32;;;;;;;15.40;8.95;;;;;;;6.31;75.67;101219.41;5025609;28;20073;-73
2022/02/24 01:09:21;;;;;;;10.80;8.45;;;;;;;6.27;75.53;101221.03;5015854;28;20032;-73
2022/02/24 01:11:47;;;;;;;11.13;6.68;;;;;;;5.65;75.59;101220.78;5027879;28;20478;-73
2022/02/24 01:14:13;;;;;;;15.52;7.80;;;;;;;6.10;74.87;101227.44;5029582;28;20079;-73
2022/02/24 01:16:39;;;;;;;10.65;7.40;;;;;;;5.39;76.15;101216.44;5043710;28;20075;-73
2022/02/24 01:19:05;;;;;;;12.45;8.05;;;;;;;5.53;76.05;101217.78;5037992;28;20059;-72
2022/02/24 01:21:30;;;;;;;13.60;8.57;;;;;;;5.32;76.89;101233.53;5041056;28;20041;-72
2022/02/24 01:23:57;;;;;;;11.13;8.00;;;;;;;5.71;76.45;101234.00;5042344;28;20461;-72
2022/02/24 01:26:23;;;;;;;8.82;6.63;;;;;;;5.35;76.83;101222.34;5047833;28;20112;-72
2022/02/24 01:28:48;;;;;;;11.85;7.70;;;;;;;5.27;76.84;101222.97;5049220;28;20261;-72
2022/02/24 01:31:14;;;;;;;12.85;7.97;;;;;;;5.44;76.04;101227.88;5046055;28;20473;-72
2022/02/24 01:33:40;;;;;;;8.25;5.63;;;;;;;5.22;76.85;101229.75;5048782;28;20044;-73
2022/02/24 01:36:06;;;;;;;14.68;6.00;;;;;;;5.16;76.88;101232.13;5045216;28;20029;-72
2022/02/24 01:38:31;;;;;;;8.25;6.82;;;;;;;4.98;77.41;101242.75;5045029;28;20020;-72
2022/02/24 01:40:56;;;;;;;11.68;5.43;;;;;;;4.88;77.47;101239.78;5049345;28;20561;-72
2022/02/24 01:43:22;;;;;;;14.48;7.93;;;;;;;5.20;77.49;101240.94;5047773;28;20469;-72
2022/02/24 01:45:47;;;;;;;12.23;7.07;;;;;;;5.31;77.45;101246.50;5049645;28;20045;-72
2022/02/24 01:48:13;;;;;;;7.70;5.50;;;;;;;5.00;77.76;101254.09;5041569;28;20041;-72
2022/02/24 01:50:39;;;;;;;10.50;5.97;;;;;;;5.12;77.55;101244.97;5047291;28;20028;-72
2022/02/24 01:53:05;;;;;;;9.88;6.90;;;;;;;5.02;77.55;101244.63;5036243;28;20043;-72
2022/02/24 01:55:30;;;;;;;9.27;5.90;;;;;;;5.38;77.03;101253.69;5037569;28;20071;-72
2022/02/24 01:57:56;;;;;;;11.40;6.97;;;;;;;5.10;77.56;101237.09;5042724;28;20436;-72
2022/02/24 02:00:23;;;;;;;11.80;5.82;;;;;;;5.26;77.13;101259.34;5040672;28;20060;-72
2022/02/24 02:02:48;;;;;;;11.52;7.35;;;;;;;5.63;77.11;101260.63;5045726;28;20079;-72
2022/02/24 02:05:14;;;;;;;9.73;5.90;;;;;;;5.36;77.01;101251.03;5042493;28;20424;-72
2022/02/24 02:07:40;;;;;;;17.20;6.28;;;;;;;5.61;76.58;101262.28;5045782;28;20370;-72
2022/02/24 02:10:06;;;;;;;8.70;5.72;;;;;;;5.72;76.76;101261.81;5031744;28;20041;-72
2022/02/24 02:12:31;;;;;;;9.38;6.72;;;;;;;5.18;76.99;101251.28;5035622;28;20048;-72
2022/02/24 02:14:57;;;;;;;10.63;6.63;;;;;;;5.33;77.00;101252.63;5047360;28;20013;-72
2022/02/24 02:17:22;;;;;;;10.40;5.55;;;;;;;5.22;76.61;101268.78;5050765;28;20033;-72
2022/02/24 02:19:48;;;;;;;11.07;6.38;;;;;;;5.39;76.44;101266.75;5047089;28;20041;-72
2022/02/24 02:22:13;;;;;;;11.07;5.90;;;;;;;5.17;76.86;101270.31;5050400;28;20041;-72
2022/02/24 02:24:39;;;;;;;9.38;5.32;;;;;;;4.90;77.35;101280.59;5038417;28;20057;-72
2022/02/24 02:27:05;;;;;;;9.57;6.05;;;;;;;5.09;77.44;101284.75;5044901;28;20592;-72
2022/02/24 02:29:30;;;;;;;8.13;5.60;;;;;;;5.25;76.58;101284.47;5052800;28;20058;-72
2022/02/24 02:31:56;;;;;;;8.18;5.20;;;;;;;5.00;76.99;101290.50;5039296;28;20037;-72
2022/02/24 02:34:21;;;;;;;8.13;5.00;;;;;;;5.16;77.04;101294.56;5040465;28;20037;-71
2022/02/24 02:36:48;;;;;;;8.85;5.82;;;;;;;5.45;76.60;101286.91;5031521;28;20474;-72
2022/02/24 02:39:14;;;;;;;7.68;5.18;;;;;;;5.03;77.20;101307.94;5047680;28;20116;-72
2022/02/24 02:41:45;;;;;;;7.25;4.88;;;;;;;5.43;76.60;101304.16;5032375;28;20075;-72
2022/02/24 02:44:12;;;;;;;9.38;5.93;;;;;;;5.18;77.62;101315.44;5044613;28;20128;-72
2022/02/24 02:46:38;;;;;;;10.52;6.45;;;;;;;4.97;77.83;101313.81;5047435;28;20116;-72
2022/02/24 02:49:04;;;;;;;9.85;5.82;;;;;;;5.00;77.61;101316.50;5057318;28;20072;-71
2022/02/24 02:51:29;;;;;;;7.20;5.13;;;;;;;4.91;78.59;101313.56;5041509;28;20040;-72
2022/02/24 02:53:56;;;;;;;8.38;4.70;;;;;;;4.73;78.28;101316.38;5048518;28;20063;-71
2022/02/24 02:56:21;;;;;;;7.78;4.80;;;;;;;4.90;77.42;101323.94;5044902;28;20481;-73
2022/02/24 02:58:47;;;;;;;9.00;5.20;;;;;;;4.74;78.55;101335.47;5043246;28;20057;-73
2022/02/24 03:01:12;;;;;;;6.65;4.68;;;;;;;4.71;78.60;101341.44;5048173;28;20473;-71
2022/02/24 03:03:38;;;;;;;10.85;5.05;;;;;;;4.93;78.28;101322.31;5045375;28;20132;-73
2022/02/24 03:06:03;;;;;;;7.97;5.18;;;;;;;5.08;78.11;101340.22;5047168;28;20036;-72
2022/02/24 03:08:29;;;;;;;9.52;5.07;;;;;;;5.18;77.65;101344.06;5055102;28;20464;-72
2022/02/24 03:10:55;;;;;;;10.27;5.72;;;;;;;4.85;78.96;101345.44;5043885;28;20535;-73
2022/02/24 03:13:20;;;;;;;6.93;4.55;;;;;;;4.55;78.75;101347.72;5048487;28;20500;-73
2022/02/24 03:15:47;;;;;;;8.18;5.00;;;;;;;4.45;79.13;101343.00;5047169;28;20112;-72
2022/02/24 03:18:13;;;;;;;9.27;5.22;;;;;;;4.54;78.55;101345.06;5046381;28;20112;-72
2022/02/24 03:20:38;;;;;;;6.65;4.95;;;;;;;4.41;78.79;101347.19;5032298;28;20140;-72
2022/02/24 03:23:06;;;;;;;7.45;4.93;;;;;;;4.62;78.26;101341.06;5041034;28;20045;-72
2022/02/24 03:25:31;;;;;;;8.35;5.45;;;;;;;4.29;78.56;101333.72;5045327;28;20123;-72
2022/02/24 03:27:58;;;;;;;7.00;5.03;;;;;;;4.32;79.34;101333.81;5047299;28;20148;-72
2022/02/24 03:30:24;;;;;;;8.52;5.78;;;;;;;4.23;79.89;101356.81;5047424;28;20051;-72
2022/02/24 03:32:51;;;;;;;6.18;4.65;;;;;;;4.38;80.35;101357.47;5049143;28;20064;-73
2022/02/24 03:35:19;;;;;;;9.30;4.25;;;;;;;4.38;80.58;101359.19;5046267;28;20037;-73
2022/02/24 03:37:45;;;;;;;8.13;5.15;;;;;;;4.29;80.32;101357.09;5048849;28;20393;-72
2022/02/24 03:40:12;;;;;;;7.40;4.15;;;;;;;4.05;80.80;101361.25;5050212;28;20052;-72
2022/02/24 03:42:38;;;;;;;8.07;4.90;;;;;;;3.80;81.60;101366.31;5034888;28;20045;-72
2022/02/24 03:45:04;;;;;;;8.43;5.43;;;;;;;3.80;81.36;101358.53;5054657;28;20031;-72
2022/02/24 03:47:30;;;;;;;7.40;4.70;;;;;;;4.19;80.30;101370.50;5049779;28;20047;-73
2022/02/24 03:49:55;;;;;;;5.57;4.03;;;;;;;3.88;80.61;101357.97;5049555;28;20139;-72
2022/02/24 03:52:21;;;;;;;11.10;6.15;;;;;;;3.99;81.08;101377.47;5050541;28;20377;-72
2022/02/24 03:54:47;;;;;;;10.50;5.00;;;;;;;4.19;80.65;101386.09;5046562;28;20362;-72
2022/02/24 03:57:16;;;;;;;7.25;5.30;;;;;;;4.12;80.43;101386.66;5046720;28;20029;-72
2022/02/24 03:59:42;;;;;;;10.35;5.55;;;;;;;4.21;81.13;101387.97;5041930;28;20048;-72
2022/02/24 04:02:08;;;;;;;9.55;4.28;;;;;;;4.18;81.01;101393.00;5050883;28;20056;-71
2022/02/24 04:04:35;;;;;;;9.15;5.85;;;;;;;4.03;81.74;101402.75;5046713;28;20045;-71
2022/02/24 04:07:01;;;;;;;10.82;5.82;;;;;;;3.92;82.00;101404.00;5047057;28;20822;-72
2022/02/24 04:09:27;;;;;;;8.48;5.57;;;;;;;3.78;81.30;101404.28;5045088;28;20080;-71
2022/02/24 04:11:53;;;;;;;8.98;6.22;;;;;;;3.98;80.98;101396.47;5049215;28;20039;-72
2022/02/24 04:14:19;;;;;;;7.75;5.50;;;;;;;4.35;80.01;101387.63;5051044;28;20041;-74
2022/02/24 04:16:44;;;;;;;11.38;6.57;;;;;;;3.93;80.91;101396.31;5034335;28;20423;-72
2022/02/24 04:19:11;;;;;;;8.23;5.38;;;;;;;4.15;80.71;101407.59;5043995;28;20401;-73
2022/02/24 04:21:36;;;;;;;11.90;7.70;;;;;;;4.10;80.47;101406.50;5046262;28;20044;-71
2022/02/24 04:24:03;;;;;;;7.80;5.47;;;;;;;4.27;79.57;101402.00;5054806;28;20025;-71
2022/02/24 04:26:29;;;;;;;9.65;5.82;;;;;;;4.40;79.10;101414.66;5054565;28;20040;-71
2022/02/24 04:28:54;;;;;;;11.27;6.53;;;;;;;4.25;79.75;101416.66;5055002;28;20044;-71
2022/02/24 04:31:20;;;;;;;13.13;6.70;;;;;;;4.23;79.75;101404.47;5052507;28;20049;-70
2022/02/24 04:33:45;;;;;;;8.68;5.45;;;;;;;4.10;79.89;101417.78;5045622;28;20052;-71
2022/02/24 04:36:12;;;;;;;14.70;5.95;;;;;;;4.38;79.33;101417.22;5047373;28;20029;-71
2022/02/24 04:38:38;;;;;;;12.57;6.72;;;;;;;3.93;80.22;101416.16;5046826;28;20055;-71
2022/02/24 04:41:03;;;;;;;10.00;6.60;;;;;;;3.98;80.25;101425.03;5043672;28;20492;-71
2022/02/24 04:43:30;;;;;;;8.57;6.03;;;;;;;3.85;80.85;101421.03;5048977;28;20045;-72
2022/02/24 04:45:55;;;;;;;11.23;8.20;;;;;;;4.08;80.08;101418.53;5065881;28;20052;-72
2022/02/24 04:48:21;;;;;;;9.95;6.55;;;;;;;4.10;80.24;101432.50;5050320;28;20037;-73
2022/02/24 04:50:50;;;;;;;13.98;6.50;;;;;;;4.32;78.92;101419.56;5045827;28;20456;-72
2022/02/24 04:53:16;;;;;;;10.57;6.68;;;;;;;4.58;79.16;101438.81;5044337;28;20037;-72
2022/02/24 04:55:42;;;;;;;11.63;7.63;;;;;;;4.29;79.79;101426.34;5041759;28;21258;-72
2022/02/24 04:58:08;;;;;;;14.93;8.15;;;;;;;4.65;78.98;101445.16;5050855;28;20048;-73
2022/02/24 05:00:34;;;;;;;12.88;7.70;;;;;;;4.67;78.33;101434.84;5042130;28;20106;-71
2022/02/24 05:03:00;;;;;;;9.65;6.93;;;;;;;4.53;79.35;101455.06;5047578;28;20042;-71
2022/02/24 05:05:25;;;;;;;15.20;6.47;;;;;;;4.59;79.33;101453.59;5050574;28;20029;-71
2022/02/24 05:07:51;;;;;;;9.30;6.75;;;;;;;4.60;79.73;101459.69;5049149;28;20512;-71
2022/02/24 05:10:17;;;;;;;17.63;6.75;;;;;;;4.65;78.88;101446.03;5039605;28;20512;-71
2022/02/24 05:12:43;;;;;;;13.77;6.63;;;;;;;4.67;79.19;101451.31;5041518;28;20068;-72
2022/02/24 05:15:10;;;;;;;9.93;7.13;;;;;;;4.60;79.40;101465.75;5043911;28;20040;-73
2022/02/24 05:17:39;;;;;;;13.85;7.63;;;;;;;4.77;79.01;101462.97;5047918;28;20077;-71
2022/02/24 05:20:05;;;;;;;9.82;6.63;;;;;;;4.55;79.27;101476.81;5043764;28;20136;-72
2022/02/24 05:22:31;;;;;;;9.85;7.72;;;;;;;4.73;78.57;101481.84;5045058;28;20037;-72
2022/02/24 05:24:57;;;;;;;9.93;7.35;;;;;;;4.68;78.70;101480.78;5050573;28;20384;-72
2022/02/24 05:27:22;;;;;;;12.57;8.25;;;;;;;4.55;79.14;101487.19;5037590;28;20037;-72
2022/02/24 05:29:48;;;;;;;13.75;8.00;;;;;;;4.63;79.09;101472.78;5045759;28;20449;-72
2022/02/24 05:32:14;;;;;;;15.90;8.95;;;;;;;4.77;79.20;101476.84;5039157;28;20052;-72
2022/02/24 05:34:39;;;;;;;14.15;8.35;;;;;;;4.67;79.08;101477.31;5046521;28;20453;-73
2022/02/24 05:37:05;;;;;;;12.50;7.72;;;;;;;4.79;78.93;101480.41;5034499;28;20032;-72
2022/02/24 05:39:30;;;;;;;12.52;7.57;;;;;;;4.84;79.09;101493.59;5049219;28;20376;-72
2022/02/24 05:42:08;;;;;;;14.25;8.40;;;;;;;4.88;78.28;101492.91;5040553;28;20051;-72
2022/02/24 05:44:55;;;;;;;11.88;8.18;;;;;;;4.91;77.48;101497.31;5042453;28;20132;-71
2022/02/24 05:47:21;;;;;;;11.50;7.65;;;;;;;4.89;77.10;101499.84;5049145;28;20123;-71
2022/02/24 05:49:47;;;;;;;11.77;7.93;;;;;;;4.82;78.17;101492.63;5038865;28;20046;-72
2022/02/24 05:52:23;;;;;;;14.75;8.93;;;;;;;4.73;79.04;101503.56;5036499;28;20472;-72
2022/02/24 05:54:49;;;;;;;10.57;7.65;;;;;;;4.51;79.21;101498.28;5045965;28;20116;-73
2022/02/24 05:57:14;;;;;;;12.57;8.02;;;;;;;4.68;79.17;101507.66;5038464;28;20154;-73
2022/02/24 05:59:40;;;;;;;14.07;8.35;;;;;;;5.10;77.54;101507.63;5033274;28;20136;-74
2022/02/24 06:02:05;;;;;;;13.07;8.95;;;;;;;4.95;77.30;101505.31;5045337;28;20034;-73
2022/02/24 06:04:31;;;;;;;16.80;10.27;;;;;;;4.96;77.38;101516.59;5045275;28;20041;-73
2022/02/24 06:06:56;;;;;;;13.80;9.05;;;;;;;4.95;77.57;101507.03;5036405;28;20052;-73
2022/02/24 06:12:33;;;;;;;13.13;9.82;;;;;;;5.27;76.34;101518.72;5046751;28;20534;-72
2022/02/24 06:14:58;;;;;;;14.50;9.45;;;;;;;5.34;76.26;101522.44;5042695;28;20033;-72
2022/02/24 06:17:23;;;;;;;12.25;7.20;;;;;;;5.34;75.59;101522.44;5058503;28;20029;-72
2022/02/24 06:19:49;;;;;;;19.55;10.05;;;;;;;5.26;75.19;101511.75;5033791;28;20067;-73
2022/02/24 06:22:14;;;;;;;10.25;8.73;;;;;;;5.41;74.48;101533.16;5043630;28;20469;-72
2022/02/24 06:24:40;;;;;;;12.45;9.15;;;;;;;5.51;73.80;101531.81;5046066;28;20469;-72
2022/02/24 06:27:05;;;;;;;10.70;8.23;;;;;;;5.60;73.13;101531.28;5046302;28;20484;-72
2022/02/24 06:29:31;;;;;;;11.32;9.05;;;;;;;5.43;73.19;101539.31;5048791;28;20021;-72
2022/02/24 06:31:56;;;;;;;13.82;10.32;;;;;;;5.30;72.94;101526.66;5055764;28;20072;-72
2022/02/24 06:34:23;;;;;;;20.15;9.80;;;;;;;5.41;71.01;101535.78;5048087;28;20048;-72
2022/02/24 06:36:49;;;;;;;14.35;10.02;;;;;;;5.67;70.23;101544.59;5044966;28;20067;-72
2022/02/24 06:39:16;;;;;;;14.25;9.90;;;;;;;5.55;70.62;101544.13;5046222;28;20098;-72
2022/02/24 06:41:41;;;;;;;17.85;9.27;;;;;;;5.58;71.87;101551.16;5048288;28;20064;-71
2022/02/24 06:44:07;;;;;;;13.40;9.02;;;;;;;5.80;71.41;101555.47;5041969;28;20511;-71
2022/02/24 06:46:32;;;;;;;17.73;9.90;;;;;;;5.98;70.06;101560.50;5035925;28;20086;-72
2022/02/24 06:48:58;;;;;;;13.05;9.43;;;;;;;6.00;70.09;101557.13;5040213;28;20049;-72
2022/02/24 06:51:23;;;;;;;13.43;9.02;;;;;;;6.16;69.13;101565.50;5042487;28;20028;-72
2022/02/24 06:53:49;;;;;;;15.75;9.00;;;;;;;5.94;69.36;101572.53;5047580;28;20020;-72
2022/02/24 06:56:14;;;;;;;19.88;8.95;;;;;;;6.02;68.99;101571.09;5048294;28;20106;-72
2022/02/24 06:58:40;;;;;;;17.05;10.75;;;;;;;6.06;69.19;101562.59;5046995;28;20123;-72
2022/02/24 07:01:05;;;;;;;10.75;9.30;;;;;;;6.31;68.31;101577.38;5042321;28;20045;-72
2022/02/24 07:03:31;;;;;;;13.88;7.30;;;;;;;6.10;67.23;101568.78;5041147;28;20692;-72
2022/02/24 07:05:56;;;;;;;17.10;10.98;;;;;;;5.86;64.67;101567.00;5047778;28;20048;-72
2022/02/24 07:08:22;;;;;;;13.82;8.80;;;;;;;6.23;62.54;101578.81;5038645;28;20044;-73
2022/02/24 07:10:48;;;;;;;17.80;9.00;;;;;;;6.36;64.86;101574.06;5046187;28;20131;-73
2022/02/24 07:13:13;;;;;;;13.52;8.02;;;;;;;6.59;65.60;101582.69;5045169;28;20082;-72
2022/02/24 07:15:39;;;;;;;9.98;8.00;;;;;;;6.51;65.69;101580.69;5051387;28;20033;-73
2022/02/24 07:18:04;;;;;;;13.55;8.50;;;;;;;6.60;65.79;101589.66;5048538;28;20107;-77
2022/02/24 07:20:29;;;;;;;12.32;7.97;;;;;;;6.63;64.60;101589.78;5051504;28;20028;-73
2022/02/24 07:22:56;;;;;;;10.30;7.70;;;;;;;6.16;64.35;101581.13;5050757;28;20048;-73
2022/02/24 07:25:21;;;;;;;10.30;7.32;;;;;;;5.82;63.51;101592.88;5043636;28;20048;-73
2022/02/24 07:27:47;;;;;;;9.70;6.85;;;;;;;5.80;64.99;101585.00;5046808;28;20045;-72
2022/02/24 07:30:13;;;;;;;8.73;5.78;;;;;;;6.15;63.07;101598.50;5038542;28;20033;-73
2022/02/24 07:32:40;;;;;;;13.90;5.82;;;;;;;6.33;61.77;101596.56;5049025;28;20062;-70
2022/02/24 07:35:06;;;;;;;8.13;6.25;;;;;;;5.95;64.34;101600.38;5056875;28;20041;-71
2022/02/24 07:37:31;;;;;;;13.80;7.55;;;;;;;6.10;64.64;101605.25;5051431;28;20065;-74
2022/02/24 07:40:19;;;;;;;8.43;6.20;;;;;;;6.40;64.59;101602.00;5050392;28;20079;-71
2022/02/24 07:42:44;;;;;;;8.98;7.07;;;;;;;6.49;62.15;101599.75;5034088;28;20049;-72
2022/02/24 07:45:10;;;;;;;12.95;6.15;;;;;;;6.13;63.24;101598.47;5035839;28;20087;-71
2022/02/24 07:47:39;;;;;;;8.00;5.28;;;;;;;6.38;61.58;101593.25;5050034;28;20029;-72
2022/02/24 07:50:06;;;;;;;10.45;6.70;;;;;;;6.21;60.40;101600.47;5044610;28;20036;-73
2022/02/24 07:52:32;;;;;;;12.55;7.15;;;;;;;6.29;59.81;101606.81;5052171;28;20029;-72
2022/02/24 07:54:57;;;;;;;7.65;5.03;;;;;;;6.62;58.99;101606.25;5045267;28;20064;-72
2022/02/24 07:57:23;;;;;;;11.02;6.05;;;;;;;6.53;59.02;101599.00;5034023;28;20049;-72
2022/02/24 07:59:48;;;;;;;13.70;7.55;;;;;;;6.42;58.46;101602.97;5041996;28;20048;-74
2022/02/24 08:02:14;;;;;;;9.15;5.32;;;;;;;6.56;57.41;101606.94;5047997;28;20135;-72
2022/02/24 08:04:39;;;;;;;11.43;6.55;;;;;;;6.67;57.45;101608.22;5049809;28;20037;-74
2022/02/24 08:07:05;;;;;;;9.18;5.85;;;;;;;6.88;57.81;101592.41;5049550;28;20532;-76
2022/02/24 08:09:31;;;;;;;12.23;6.65;;;;;;;7.65;57.08;101607.06;5037116;28;20041;-73
2022/02/24 08:14:40;;;;;;;7.85;6.15;;;;;;;7.89;57.61;101586.94;5023466;28;20044;-72
2022/02/24 08:17:06;;;;;;;10.73;5.55;;;;;;;7.43;53.79;101589.84;5033604;28;20045;-72
2022/02/24 08:19:33;;;;;;;10.63;5.35;;;;;;;8.60;62.96;101591.56;5047413;28;20469;-72
2022/02/24 08:22:01;;;;;;;6.63;5.20;;;;;;;7.71;54.04;101597.69;5042402;28;20068;-73
2022/02/24 08:24:26;;;;;;;16.08;7.68;;;;;;;8.15;54.76;101584.19;5036488;28;20129;-72
2022/02/24 08:26:52;;;;;;;10.23;6.25;;;;;;;8.19;56.28;101584.31;5038905;28;20112;-72
2022/02/24 08:29:18;;;;;;;9.82;5.75;;;;;;;7.79;53.73;101588.34;5036175;28;20068;-71
2022/02/24 08:31:43;;;;;;;18.20;8.43;;;;;;;7.85;56.57;101592.00;5037430;28;20484;-71
2022/02/24 08:34:10;;;;;;;18.50;12.60;;;;;;;8.61;54.03;101594.22;5045639;28;20418;-71
2022/02/24 08:36:35;;;;;;;18.00;6.88;;;;;;;8.63;54.16;101594.25;5037665;28;20053;-72
2022/02/24 08:39:01;;;;;;;10.52;6.22;;;;;;;7.31;56.36;101603.41;5045130;28;20468;-72
2022/02/24 08:41:27;;;;;;;12.00;7.95;;;;;;;8.18;56.91;101587.75;5047927;28;20120;-73
2022/02/24 08:43:52;;;;;;;9.68;6.18;;;;;;;8.34;53.96;101598.69;5045166;28;20504;-73
2022/02/24 08:46:17;;;;;;;7.65;5.35;;;;;;;9.65;51.57;101601.19;5047825;28;20056;-72
2022/02/24 08:48:43;;;;;;;7.22;4.82;;;;;;;7.68;56.01;101597.63;5040383;28;20037;-72
2022/02/24 08:51:08;;;;;;;31.83;16.02;;;;;;;8.16;54.22;101602.50;5044970;28;20048;-71
2022/02/24 08:53:34;;;;;;;18.92;10.43;;;;;;;8.33;55.09;101584.69;5046307;28;20044;-72
2022/02/24 08:55:59;;;;;;;21.42;11.05;;;;;;;9.06;55.71;101598.00;5047868;28;20470;-71
2022/02/24 08:58:25;;;;;;;10.10;6.82;;;;;;;8.24;54.56;101587.94;5046157;28;20374;-71
2022/02/24 09:00:51;;;;;;;10.73;7.07;;;;;;;7.79;55.06;101601.41;5047705;28;20381;-72
2022/02/24 09:03:17;;;;;;;21.15;7.55;;;;;;;7.75;55.14;101590.81;5046707;28;20496;-72
2022/02/24 09:05:47;;;;;;;10.88;7.13;;;;;;;8.31;53.69;101585.50;5046076;28;20449;-72
2022/02/24 09:08:13;;;;;;;13.95;7.03;;;;;;;7.47;55.51;101584.78;5031984;28;20346;-72
2022/02/24 09:10:39;;;;;;;9.00;7.57;;;;;;;8.12;52.76;101591.94;5039766;28;20533;-72
2022/02/24 09:13:11;;;;;;;13.55;9.65;;;;;;;8.53;56.09;101592.25;5045666;28;20041;-73
2022/02/24 09:15:37;;;;;;;11.00;6.90;;;;;;;8.40;54.99;101594.50;5044586;28;20041;-72
2022/02/24 09:18:07;;;;;;;20.83;10.30;;;;;;;8.30;52.82;101582.00;5043252;28;20059;-73
2022/02/24 09:20:32;;;;;;;11.70;8.80;;;;;;;7.93;52.85;101582.66;5038993;28;20028;-74
2022/02/24 09:22:58;;;;;;;10.27;8.60;;;;;;;8.21;52.26;101584.34;5045834;28;20468;-73
2022/02/24 09:25:24;;;;;;;18.58;14.55;;;;;;;9.33;52.91;101576.84;5047238;28;20037;-72
2022/02/24 09:27:51;;;;;;;35.03;24.38;;;;;;;10.81;48.86;101564.19;5036249;28;20063;-72
2022/02/24 09:30:17;;;;;;;19.13;13.75;;;;;;;9.64;49.48;101581.06;5045417;28;20044;-73
2022/02/24 09:32:43;;;;;;;19.10;12.68;;;;;;;9.91;51.94;101570.31;5032964;28;20022;-72
2022/02/24 09:35:11;;;;;;;12.73;7.57;;;;;;;9.25;50.39;101574.06;5044704;28;20044;-72
2022/02/24 09:37:36;;;;;;;12.07;10.02;;;;;;;9.94;51.68;101570.34;5041605;28;20107;-73
2022/02/24 09:40:07;;;;;;;14.63;9.82;;;;;;;12.06;49.34;101556.44;5046156;28;20049;-72
2022/02/24 09:42:36;;;;;;;12.23;8.25;;;;;;;10.82;50.22;101552.84;5046953;28;20041;-73
2022/02/24 09:45:04;;;;;;;12.02;8.40;;;;;;;12.11;43.15;101557.41;5042543;28;20063;-72
2022/02/24 09:47:30;;;;;;;18.77;15.48;;;;;;;14.59;44.57;101545.13;5046063;28;20029;-74
2022/02/24 09:49:58;;;;;;;11.35;9.43;;;;;;;14.55;46.37;101541.59;5035186;28;20399;-73
2022/02/24 09:52:24;;;;;;;12.13;9.25;;;;;;;15.13;42.91;101529.31;5039745;28;20045;-73
2022/02/24 09:54:50;;;;;;;10.73;7.43;;;;;;;12.31;46.19;101532.19;5040777;28;20033;-73
2022/02/24 09:57:16;;;;;;;9.45;6.13;;;;;;;11.05;42.22;101522.59;5046114;28;20048;-73
2022/02/24 09:59:41;;;;;;;18.02;6.63;;;;;;;13.10;42.15;101525.91;5030174;28;20052;-73
2022/02/24 10:02:09;;;;;;;10.55;6.55;;;;;;;11.71;44.28;101514.78;5043688;28;20044;-73
2022/02/24 10:04:35;;;;;;;42.42;24.00;;;;;;;12.63;48.87;101506.19;5041577;28;20055;-73
2022/02/24 10:07:00;;;;;;;25.58;14.25;;;;;;;13.16;44.22;101514.50;5035209;28;20037;-74
2022/02/24 10:09:31;;;;;;;10.30;6.65;;;;;;;11.75;43.86;101508.69;5045239;28;20061;-75
2022/02/24 10:12:05;;;;;;;30.40;14.95;;;;;;;11.82;47.64;101502.63;5052590;28;20024;-71
2022/02/24 10:14:32;;;;;;;34.70;18.85;;;;;;;13.49;47.22;101498.06;5031263;28;20087;-69
2022/02/24 10:17:07;;;;;;;40.15;24.65;;;;;;;13.29;45.10;101503.22;5018644;28;20053;-70
2022/02/24 10:19:36;;;;;;;31.52;18.33;;;;;;;16.10;39.37;101491.97;5014143;28;20045;-71
2022/02/24 10:22:15;;;;;;;9.10;5.32;;;;;;;12.46;41.41;101497.25;5022224;28;20116;-71
2022/02/24 10:24:53;;;;;;;38.25;23.33;;;;;;;13.35;41.48;101492.72;5026034;28;20493;-70
2022/02/24 10:27:20;;;;;;;47.40;30.40;;;;;;;13.80;45.18;101480.63;5024475;28;20096;-72
2022/02/24 10:30:07;;;;;;;61.22;34.72;;;;;;;12.49;41.89;101491.16;5020099;28;20038;-72
2022/02/24 10:32:41;;;;;;;16.75;8.82;;;;;;;11.56;40.67;101481.28;5014208;28;20044;-71
2022/02/24 10:35:29;;;;;;;11.65;4.88;;;;;;;10.54;44.98;101479.75;5022124;28;20046;-72
2022/02/24 10:37:59;;;;;;;9.95;4.95;;;;;;;10.09;45.05;101479.75;5024251;28;20049;-72
2022/02/24 10:40:27;;;;;;;13.15;8.07;;;;;;;11.17;48.50;101472.88;5023348;28;20055;-74
2022/02/24 10:42:53;;;;;;;25.10;14.45;;;;;;;11.71;42.08;101470.97;5026850;28;20049;-73
2022/02/24 10:45:23;;;;;;;8.43;4.00;;;;;;;10.25;42.62;101468.69;5024229;28;20501;-73
2022/02/24 10:47:55;;;;;;;7.03;4.18;;;;;;;9.62;43.56;101463.94;5023955;28;20056;-72
2022/02/24 10:50:41;;;;;;;4.35;3.15;;;;;;;10.29;43.06;101453.94;5021018;28;20038;-72
2022/02/24 10:53:06;;;;;;;14.88;7.78;;;;;;;9.85;43.60;101449.56;5025471;28;20557;-72
2022/02/24 10:55:32;;;;;;;6.32;3.70;;;;;;;9.80;44.44;101451.22;5026654;28;20053;-71
2022/02/24 10:58:06;;;;;;;9.65;4.90;;;;;;;9.07;43.54;101446.19;5021737;28;20072;-71
2022/02/24 11:00:32;;;;;;;10.52;4.85;;;;;;;9.31;44.23;101458.06;5023645;28;20393;-72
2022/02/24 11:02:58;;;;;;;5.63;3.55;;;;;;;8.91;44.24;101457.16;5024332;28;20034;-74
2022/02/24 11:05:24;;;;;;;7.80;2.83;;;;;;;9.13;43.89;101432.38;5013061;28;20030;-73
2022/02/24 11:07:50;;;;;;;6.53;3.25;;;;;;;9.58;44.53;101434.19;5011141;28;20064;-73
2022/02/24 11:10:16;;;;;;;6.97;3.53;;;;;;;10.00;43.57;101437.66;5022742;28;20060;-73
2022/02/24 11:12:41;;;;;;;8.02;3.65;;;;;;;9.62;40.69;101438.66;5018987;28;20049;-72
2022/02/24 11:15:08;;;;;;;5.10;3.45;;;;;;;10.09;43.54;101429.91;5023947;28;20108;-72
2022/02/24 11:17:35;;;;;;;6.22;3.10;;;;;;;10.08;40.47;101422.91;5007967;28;20033;-73
2022/02/24 11:20:00;;;;;;;6.72;3.22;;;;;;;9.85;43.56;101428.59;5024153;28;20073;-73
2022/02/24 11:22:27;;;;;;;5.90;3.17;;;;;;;9.59;40.11;101416.72;5017467;28;20449;-74
2022/02/24 11:24:56;;;;;;;4.65;2.50;;;;;;;9.76;39.08;101425.78;5014179;28;20095;-73
2022/02/24 11:27:33;;;;;;;5.78;3.17;;;;;;;10.11;38.92;101415.09;5027534;28;20041;-73
2022/02/24 11:30:08;;;;;;;5.72;2.58;;;;;;;10.34;39.75;101412.91;5022232;28;20021;-73
2022/02/24 11:32:35;;;;;;;4.65;2.75;;;;;;;10.16;38.53;101426.59;5023870;28;20025;-73
2022/02/24 11:35:10;;;;;;;4.25;2.28;;;;;;;10.42;38.03;101419.19;5025115;28;20366;-74